• Join FlightAware (Why Join?)
  • Login
  • US Flag 
01:23AM EST


 

Airport Tracker/Info


-or-


 

Live Flight TrackerFlight Track Log ✈ FDX1482 ✈ 30-Apr-2013 ✈ KMEM - KBWI

Flight Track Log - Related Links

Times and Time Zones

All times are in EDT time to prevent confusion due to time zone crossing. See the FDX1482 flight status page for this flight to view local times or setup timezone preferences in your user account.

Time Position Orientation Groundspeed Altitude Reporting Facility
EDT Latitude Longitude Course Direction KTS MPH feet Rate Location/Type
05:01AM 35.0167 -89.9667 180° South 148 170 1,400  Level KMEM
05:03AM 34.9667 -89.9667 180° South 219 252 3,100 2,460 Climbing KMEM
05:04AM 34.9333 -89.9000 121° Southeast 280 322 6,700 3,000 Climbing KMEM
05:05AM 34.9744 -89.7336 73° East 328 377 11,300 2,880 Climbing Memphis Center
05:06AM 35.0175 -89.6142 66° East 360 414 14,700 3,300 Climbing Memphis Center
05:07AM 35.0647 -89.4869 66° East 391 450 18,000 3,000 Climbing Memphis Center
05:08AM 35.1139 -89.3569 65° Northeast 412 474 20,800 2,520 Climbing Memphis Center
05:09AM 35.1647 -89.2192 66° East 428 493 23,100 2,220 Climbing Memphis Center
05:10AM 35.2156 -89.0761 66° East 443 510 25,300 1,860 Climbing Memphis Center
05:11AM 35.2642 -88.9456 65° Northeast 452 520 26,900 1,860 Climbing Memphis Center
05:12AM 35.3208 -88.7947 65° Northeast 472 543 29,100 2,160 Climbing Memphis Center
05:13AM 35.3711 -88.6486 67° East 472 543 31,300 1,920 Climbing Memphis Center
05:14AM 35.4231 -88.4997 67° East 472 543 33,000 1,500 Climbing Memphis Center
05:15AM 35.4792 -88.3506 65° Northeast 472 543 34,300 960 Climbing Memphis Center
05:16AM 35.5331 -88.2039 66° East 472 543 35,000 300 Climbing Memphis Center
05:17AM 35.5886 -88.0517 66° East 456 525 35,000  Level Memphis Center
05:18AM 35.6419 -87.8994 67° East 456 525 35,000  Level Memphis Center
05:19AM 35.6933 -87.7522 67° East 468 539 35,000  Level Memphis Center
05:20AM 35.7464 -87.6022 66° East 468 539 35,000  Level Memphis Center
05:21AM 35.7972 -87.4547 67° East 468 539 35,000  Level Memphis Center
05:22AM 35.8500 -87.3042 67° East 468 539 35,000  Level Memphis Center
05:23AM 35.8944 -87.1719 67° East 468 539 35,000  Level Memphis Center
05:24AM 35.9447 -87.0214 68° East 468 539 35,000  Level Memphis Center
05:25AM 35.9989 -86.8703 66° East 468 539 35,000  Level Memphis Center
05:26AM 36.0489 -86.7167 68° East 473 544 35,000  Level Memphis Center
05:27AM 36.1006 -86.5653 67° East 473 544 35,000  Level Memphis Center
05:28AM 36.1519 -86.4114 67° East 473 544 35,000  Level Memphis Center
05:29AM 36.2036 -86.2622 67° East 468 539 35,000  Level Memphis Center
05:30AM 36.2547 -86.1103 67° East 473 544 35,000  Level Memphis Center
05:31AM 36.3058 -85.9608 67° East 473 544 35,000  Level Memphis Center
05:33AM 36.3958 -85.6886 68° East 477 549 35,000  Level Indianapolis Center
05:34AM 36.4467 -85.5353 68° East 477 549 35,000  Level Indianapolis Center
05:35AM 36.4969 -85.3825 68° East 476 548 35,000  Level Indianapolis Center
05:36AM 36.5461 -85.2281 68° East 477 549 35,000  Level Indianapolis Center
05:37AM 36.5964 -85.0742 68° East 478 550 35,000  Level Indianapolis Center
05:38AM 36.6464 -84.9186 68° East 480 552 35,000  Level Indianapolis Center
05:39AM 36.6964 -84.7636 68° East 481 554 35,000  Level Indianapolis Center
05:40AM 36.7447 -84.6078 69° East 481 554 35,000  Level Indianapolis Center
05:41AM 36.8011 -84.4303 68° East 482 555 35,000  Level Indianapolis Center
05:42AM 36.8503 -84.2742 68° East 482 555 35,000  Level Indianapolis Center
05:43AM 36.8989 -84.1181 69° East 484 557 35,000  Level Indianapolis Center
05:44AM 36.9472 -83.9611 69° East 484 557 35,000  Level Indianapolis Center
05:45AM 36.9967 -83.8067 68° East 479 551 35,000  Level Indianapolis Center
05:46AM 37.0456 -83.6492 69° East 481 554 35,000  Level Indianapolis Center
05:47AM 37.0928 -83.4928 69° East 478 550 35,000  Level Indianapolis Center
05:48AM 37.1411 -83.3347 69° East 479 551 35,000  Level Indianapolis Center
05:49AM 37.1903 -83.1758 69° East 483 556 35,000  Level Indianapolis Center
05:50AM 37.2386 -83.0161 69° East 484 557 35,000  Level Indianapolis Center
05:51AM 37.2864 -82.8572 69° East 481 554 35,000  Level Indianapolis Center
05:52AM 37.3336 -82.6969 70° East 484 557 35,000  Level Indianapolis Center
05:53AM 37.3808 -82.5372 70° East 486 559 35,000  Level Indianapolis Center
05:54AM 37.4272 -82.3786 70° East 481 554 35,000  Level Indianapolis Center
05:55AM 37.4744 -82.2197 69° East 483 556 35,000  Level Indianapolis Center
05:56AM 37.5206 -82.0597 70° East 484 557 35,000  Level Indianapolis Center
05:57AM 37.5683 -81.9000 69° East 487 560 35,000  Level Indianapolis Center
05:58AM 37.6128 -81.7406 71° East 483 556 35,000  Level Indianapolis Center
05:59AM 37.6578 -81.5806 70° East 482 555 35,000  Level Indianapolis Center
06:00AM 37.7017 -81.4250 70° East 480 552 35,000  Level Indianapolis Center
06:01AM 37.7325 -81.3086 71° East 483 556 35,000  Level Washington Center
06:02AM 37.7797 -81.1464 70° East 473 544 35,000  Level Washington Center
06:03AM 37.8244 -80.9894 70° East 473 544 35,000  Level Washington Center
06:04AM 37.8689 -80.8347 70° East 473 544 35,000  Level Washington Center
06:05AM 37.9161 -80.6564 71° East 473 544 35,000  Level Washington Center
06:06AM 37.9600 -80.5014 70° East 473 544 35,000  Level Washington Center
06:07AM 38.0042 -80.3408 71° East 473 544 35,000  Level Washington Center
06:08AM 38.0481 -80.1800 71° East 473 544 35,000  Level Washington Center
06:09AM 38.0914 -80.0217 71° East 473 544 35,000  Level Washington Center
06:10AM 38.1300 -79.8789 71° East 473 544 35,000  Level Washington Center
06:11AM 38.1711 -79.7200 72° East 473 544 35,000  Level Washington Center
06:12AM 38.2119 -79.5583 72° East 473 544 35,000 -120 Level Washington Center
06:13AM 38.2528 -79.3967 72° East 473 544 34,800 -1,440 Descending Washington Center
06:14AM 38.2931 -79.2372 72° East 473 544 32,100 -3,240 Descending Washington Center
06:15AM 38.3400 -79.0622 71° East 473 544 28,300 -3,000 Descending Washington Center
06:16AM 38.3819 -78.9025 71° East 473 544 26,200 -1,320 Descending Washington Center
06:17AM 38.4219 -78.7400 73° East 473 544 25,700 -540 Descending Washington Center
06:18AM 38.4636 -78.5747 72° East 473 544 25,200 -540 Descending Washington Center
06:19AM 38.5050 -78.4144 72° East 473 544 24,700 -540 Descending Washington Center
06:20AM 38.5442 -78.2514 73° East 473 544 24,200 -960 Descending Washington Center
06:21AM 38.5831 -78.0936 72° East 473 544 22,900 -2,040 Descending Washington Center
06:22AM 38.6258 -77.9356 71° East 468 539 20,200 -2,280 Descending Washington Center
06:23AM 38.6453 -77.7819 81° East 451 519 18,400 -1,380 Descending Washington Center
06:24AM 38.6544 -77.6281 86° East 441 507 17,500 -960 Descending Washington Center
06:24AM 38.6500 -77.5833 97° East 424 488 17,200 -960 Descending Potomac TRACON
06:26AM 38.6667 -77.4167 83° East 422 486 16,200 -600 Descending Potomac TRACON
06:26AM 38.6833 -77.2833 81° East 381 438 16,000 -900 Descending Potomac TRACON
06:27AM 38.6833 -77.1667 90° East 348 400 14,600 -1,920 Descending Potomac TRACON
06:28AM 38.6833 -77.0667 90° East 341 392 12,400 -1,800 Descending Potomac TRACON
06:29AM 38.7000 -76.9500 80° East 327 376 11,400 -1,200 Descending Potomac TRACON
06:30AM 38.6961 -76.8606 93° East 319 367 10,300 -1,200 Descending Washington Center
06:32AM 38.7500 -76.6500 72° East 280 322 7,800 -1,380 Descending Potomac TRACON
06:33AM 38.7833 -76.5833 57° Northeast 274 315 6,300 -1,320 Descending Potomac TRACON
06:34AM 38.8333 -76.5333 38° Northeast 279 321 5,200 -1,140 Descending Potomac TRACON
06:35AM 38.9000 -76.5667 339° North 271 312 4,100 -660 Descending Potomac TRACON
06:36AM 38.9667 -76.6000 339° North 274 315 4,000 -60 Descending Potomac TRACON
06:37AM 39.0167 -76.6833 308° West 278 320 4,000  Level Potomac TRACON
06:38AM 39.0500 -76.7667 297° West 280 322 4,000  Level Potomac TRACON
06:39AM 39.0833 -76.8500 297° West 278 320 4,000 -300 Level Potomac TRACON
06:40AM 39.1333 -76.9167 314° West 248 285 3,400 -900 Descending Potomac TRACON
06:41AM 39.1833 -76.9333 346° North 223 257 2,200 -780 Descending Potomac TRACON
06:42AM 39.1833 -76.8833 90° East 187 215 2,000 -120 Descending Potomac TRACON
06:43AM 39.1833 -76.8167 90° East 167 192 2,000 -360 Level Potomac TRACON
06:44AM 39.1833 -76.7667 90° East 138 159 1,300 -720 Descending Potomac TRACON
06:45AM 39.1833 -76.7167 90° East 122 140 600 -720 Descending Potomac TRACON